createdAt,value
2024-02-13T00:00:42.753Z,5.27
2024-02-13T00:01:42.881Z,5.26
2024-02-13T00:02:42.814Z,5.26
2024-02-13T00:03:42.797Z,5.23
2024-02-13T00:04:42.727Z,5.29
2024-02-13T00:05:42.710Z,5.29
2024-02-13T00:06:42.704Z,5.29
2024-02-13T00:07:42.908Z,5.32
2024-02-13T00:08:45.650Z,5.30
2024-02-13T00:09:42.665Z,5.30
2024-02-13T00:10:42.651Z,5.32
2024-02-13T00:11:42.640Z,5.32
2024-02-13T00:12:42.639Z,5.32
2024-02-13T00:13:42.636Z,5.32
2024-02-13T00:14:44.381Z,5.29
2024-02-13T00:15:42.588Z,5.30
2024-02-13T00:16:42.594Z,5.30
2024-02-13T00:17:42.926Z,5.29
2024-02-13T00:18:42.624Z,5.27
2024-02-13T00:19:42.640Z,5.29
2024-02-13T00:20:42.557Z,5.24
2024-02-13T00:21:42.560Z,5.26
2024-02-13T00:22:42.638Z,5.26
2024-02-13T00:23:42.634Z,5.26
2024-02-13T00:24:42.502Z,5.27
2024-02-13T00:25:42.473Z,5.27
2024-02-13T00:26:42.513Z,5.27
2024-02-13T00:27:42.456Z,5.29
2024-02-13T00:28:42.501Z,5.27
2024-02-13T00:29:42.466Z,5.33
2024-02-13T00:30:42.429Z,5.32
2024-02-13T00:31:42.601Z,5.29
2024-02-13T00:32:42.577Z,5.38
2024-02-13T00:33:42.509Z,5.35
2024-02-13T00:34:42.514Z,5.30
2024-02-13T00:35:42.446Z,5.27
2024-02-13T00:36:42.375Z,5.27
2024-02-13T00:37:42.343Z,5.27
2024-02-13T00:38:42.356Z,5.24
2024-02-13T00:39:42.356Z,5.22
2024-02-13T00:40:42.325Z,5.23
2024-02-13T00:41:42.378Z,5.27
2024-02-13T00:42:42.314Z,5.26
2024-02-13T00:43:42.345Z,5.29
2024-02-13T00:44:42.322Z,5.26
2024-02-13T00:45:43.993Z,5.24
2024-02-13T00:46:42.254Z,5.20
2024-02-13T00:47:42.580Z,5.22
2024-02-13T00:48:42.356Z,5.17
2024-02-13T00:49:42.286Z,5.15
2024-02-13T00:50:42.219Z,5.11
2024-02-13T00:51:42.179Z,5.14
2024-02-13T00:52:42.236Z,5.14
2024-02-13T00:53:42.224Z,5.15
2024-02-13T00:54:42.199Z,5.19
2024-02-13T00:55:42.141Z,5.17
2024-02-13T00:56:42.275Z,5.19
2024-02-13T00:57:42.139Z,5.20
2024-02-13T00:58:42.164Z,5.19
2024-02-13T00:59:42.146Z,5.17
2024-02-13T01:00:42.099Z,5.20
2024-02-13T01:01:42.070Z,5.19
2024-02-13T01:02:42.234Z,5.14
2024-02-13T01:03:42.150Z,5.17
2024-02-13T01:04:42.066Z,5.14
2024-02-13T01:05:42.143Z,5.12
2024-02-13T01:06:42.055Z,5.08
2024-02-13T01:07:41.997Z,5.08
2024-02-13T01:08:42.026Z,5.02
2024-02-13T01:09:42.001Z,5.04
2024-02-13T01:10:41.994Z,5.01
2024-02-13T01:11:42.108Z,5.04
2024-02-13T01:12:41.927Z,5.05
2024-02-13T01:13:41.953Z,5.08
2024-02-13T01:14:41.959Z,5.06
2024-02-13T01:15:41.951Z,5.05
2024-02-13T01:16:41.926Z,5.01
2024-02-13T01:17:41.954Z,5.02
2024-02-13T01:18:41.909Z,5.01
2024-02-13T01:19:41.979Z,4.96
2024-02-13T01:20:41.880Z,4.97
2024-02-13T01:21:41.879Z,4.96
2024-02-13T01:22:41.856Z,4.93
2024-02-13T01:23:41.920Z,4.94
2024-02-13T01:24:41.817Z,4.97
2024-02-13T01:25:41.799Z,4.99
2024-02-13T01:26:41.900Z,5.02
2024-02-13T01:27:41.811Z,5.01
2024-02-13T01:28:41.801Z,5.04
2024-02-13T01:29:41.771Z,5.04
2024-02-13T01:30:41.723Z,5.05
2024-02-13T01:31:41.737Z,5.09
2024-02-13T01:32:42.084Z,5.06
2024-02-13T01:33:41.856Z,5.09
2024-02-13T01:34:41.739Z,5.08
2024-02-13T01:35:41.721Z,5.11
2024-02-13T01:36:41.665Z,5.12
2024-02-13T01:37:41.733Z,5.12
2024-02-13T01:38:41.748Z,5.09
2024-02-13T01:39:41.660Z,5.09
2024-02-13T01:40:41.627Z,5.08
2024-02-13T01:41:41.620Z,5.06
2024-02-13T01:42:41.607Z,5.08
2024-02-13T01:43:42.030Z,5.04
2024-02-13T01:44:41.656Z,5.05
2024-02-13T01:45:41.594Z,5.01
2024-02-13T01:46:41.552Z,5.04
2024-02-13T01:47:41.728Z,5.02
2024-02-13T01:48:41.674Z,4.99
2024-02-13T01:49:41.588Z,4.99
2024-02-13T01:50:41.646Z,5.04
2024-02-13T01:51:41.506Z,5.05
2024-02-13T01:52:41.488Z,5.05
2024-02-13T01:53:41.595Z,5.05
2024-02-13T01:54:41.477Z,5.08
2024-02-13T01:55:41.452Z,5.08
2024-02-13T01:56:41.532Z,5.08
2024-02-13T01:57:41.432Z,5.11
2024-02-13T01:58:41.653Z,5.08
2024-02-13T01:59:41.436Z,5.04
2024-02-13T02:00:41.391Z,5.05
2024-02-13T02:01:41.386Z,5.05
2024-02-13T02:02:41.414Z,5.05
2024-02-13T02:03:41.436Z,5.05
2024-02-13T02:04:41.352Z,5.04
2024-02-13T02:05:41.444Z,5.08
2024-02-13T02:06:41.357Z,5.02
2024-02-13T02:07:41.350Z,5.06
2024-02-13T02:08:41.384Z,5.06
2024-02-13T02:09:41.313Z,5.06
2024-02-13T02:10:41.276Z,5.05
2024-02-13T02:11:41.348Z,5.05
2024-02-13T02:12:41.254Z,5.09
2024-02-13T02:13:41.347Z,5.11
2024-02-13T02:14:41.224Z,5.12
2024-02-13T02:15:41.222Z,5.15
2024-02-13T02:16:41.221Z,5.17
2024-02-13T02:17:41.410Z,5.15
2024-02-13T02:18:41.315Z,5.19
2024-02-13T02:19:41.230Z,5.20
2024-02-13T02:20:41.192Z,5.19
2024-02-13T02:21:41.219Z,5.17
2024-02-13T02:22:41.144Z,5.17
2024-02-13T02:23:41.168Z,5.14
2024-02-13T02:24:41.144Z,5.14
2024-02-13T02:25:41.112Z,5.12
2024-02-13T02:26:41.156Z,5.12
2024-02-13T02:27:41.096Z,5.15
2024-02-13T02:28:41.089Z,5.15
2024-02-13T02:29:41.115Z,5.17
2024-02-13T02:30:41.044Z,5.22
2024-02-13T02:31:41.088Z,5.20
2024-02-13T02:32:41.088Z,5.19
2024-02-13T02:33:41.045Z,5.17
2024-02-13T02:34:41.095Z,5.14
2024-02-13T02:35:41.037Z,5.09
2024-02-13T02:36:40.973Z,5.11
2024-02-13T02:37:40.996Z,5.08
2024-02-13T02:38:41.028Z,5.08
2024-02-13T02:39:40.955Z,5.08
2024-02-13T02:40:40.960Z,5.05
2024-02-13T02:41:40.944Z,5.08
2024-02-13T02:42:40.910Z,5.08
2024-02-13T02:43:40.947Z,5.08
2024-02-13T02:44:40.901Z,5.08
2024-02-13T02:45:40.911Z,5.12
2024-02-13T02:46:40.913Z,5.15
2024-02-13T02:47:40.984Z,5.17
2024-02-13T02:48:40.911Z,5.19
2024-02-13T02:49:40.888Z,5.17
2024-02-13T02:50:41.577Z,5.17
2024-02-13T02:51:40.857Z,5.14
2024-02-13T02:52:40.813Z,5.09
2024-02-13T02:53:40.842Z,5.06
2024-02-13T02:54:40.775Z,5.05
2024-02-13T02:55:40.811Z,5.04
2024-02-13T02:56:40.868Z,5.01
2024-02-13T02:57:40.748Z,5.01
2024-02-13T02:58:40.729Z,5.01
2024-02-13T02:59:40.767Z,4.96
2024-02-13T03:00:40.744Z,4.93
2024-02-13T03:01:40.729Z,4.93
2024-02-13T03:02:40.700Z,4.90
2024-02-13T03:03:40.729Z,4.87
2024-02-13T03:04:40.686Z,4.84
2024-02-13T03:05:40.713Z,4.80
2024-02-13T03:06:40.744Z,4.80
2024-02-13T03:07:40.678Z,4.87
2024-02-13T03:08:40.659Z,4.87
2024-02-13T03:09:40.631Z,4.91
2024-02-13T03:10:40.622Z,4.91
2024-02-13T03:11:40.625Z,4.93
2024-02-13T03:12:40.571Z,4.97
2024-02-13T03:13:40.593Z,4.97
2024-02-13T03:14:40.560Z,4.96
2024-02-13T03:15:40.571Z,4.96
2024-02-13T03:16:40.533Z,4.94
2024-02-13T03:17:40.581Z,4.96
2024-02-13T03:18:40.633Z,4.93
2024-02-13T03:19:40.572Z,4.93
2024-02-13T03:20:40.508Z,4.94
2024-02-13T03:21:40.477Z,4.99
2024-02-13T03:22:40.579Z,4.99
2024-02-13T03:23:40.494Z,5.02
2024-02-13T03:24:40.450Z,4.97
2024-02-13T03:25:40.426Z,5.02
2024-02-13T03:26:40.509Z,5.01
2024-02-13T03:27:40.407Z,5.02
2024-02-13T03:28:40.424Z,5.04
2024-02-13T03:29:40.506Z,5.02
2024-02-13T03:30:40.397Z,4.99
2024-02-13T03:31:40.372Z,4.99
2024-02-13T03:32:40.474Z,4.97
2024-02-13T03:33:40.493Z,4.97
2024-02-13T03:34:40.378Z,4.94
2024-02-13T03:35:40.483Z,4.94
2024-02-13T03:36:40.298Z,4.93
2024-02-13T03:37:40.293Z,4.93
2024-02-13T03:38:41.041Z,4.93
2024-02-13T03:39:40.273Z,4.94
2024-02-13T03:40:40.289Z,4.99
2024-02-13T03:41:40.270Z,5.02
2024-02-13T03:42:40.225Z,5.06
2024-02-13T03:43:40.243Z,5.06
2024-02-13T03:44:40.237Z,5.06
2024-02-13T03:45:40.252Z,5.06
2024-02-13T03:46:40.184Z,5.11
2024-02-13T03:47:40.247Z,5.08
2024-02-13T03:48:40.268Z,5.08
2024-02-13T03:49:40.295Z,5.06
2024-02-13T03:50:40.180Z,5.08
2024-02-13T03:51:40.134Z,5.05
2024-02-13T03:52:40.101Z,5.06
2024-02-13T03:53:40.162Z,5.06
2024-02-13T03:54:40.089Z,5.06
2024-02-13T03:55:40.095Z,5.08
2024-02-13T03:56:40.106Z,5.09
2024-02-13T03:57:40.076Z,5.06
2024-02-13T03:58:40.092Z,5.08
2024-02-13T03:59:40.208Z,5.08
2024-02-13T04:00:40.142Z,5.08
2024-02-13T04:01:40.055Z,5.06
2024-02-13T04:02:40.080Z,5.08
2024-02-13T04:03:40.034Z,5.06
2024-02-13T04:04:40.056Z,5.08
2024-02-13T04:05:40.196Z,5.08
2024-02-13T04:06:39.974Z,5.08
2024-02-13T04:07:39.971Z,5.08
2024-02-13T04:08:39.995Z,5.08
2024-02-13T04:09:39.933Z,5.09
2024-02-13T04:10:39.909Z,5.09
2024-02-13T04:11:39.993Z,5.09
2024-02-13T04:12:39.895Z,5.08
2024-02-13T04:13:39.911Z,5.08
2024-02-13T04:14:39.930Z,5.08
2024-02-13T04:15:39.860Z,5.06
2024-02-13T04:16:39.839Z,5.06
2024-02-13T04:17:39.918Z,5.05
2024-02-13T04:18:39.919Z,5.05
2024-02-13T04:19:39.903Z,5.05
2024-02-13T04:20:39.885Z,5.04
2024-02-13T04:21:39.817Z,5.02
2024-02-13T04:22:39.788Z,5.02
2024-02-13T04:23:39.827Z,4.99
2024-02-13T04:24:39.764Z,4.97
2024-02-13T04:25:39.740Z,4.96
2024-02-13T04:26:39.797Z,4.96
2024-02-13T04:27:39.723Z,4.93
2024-02-13T04:28:39.744Z,4.91
2024-02-13T04:29:39.724Z,4.87
2024-02-13T04:30:39.679Z,4.84
2024-02-13T04:31:40.049Z,4.80
2024-02-13T04:32:39.848Z,4.79
2024-02-13T04:33:39.769Z,4.74
2024-02-13T04:34:39.673Z,4.74
2024-02-13T04:35:39.756Z,4.69
2024-02-13T04:36:39.637Z,4.69
2024-02-13T04:37:39.628Z,4.69
2024-02-13T04:38:39.649Z,4.68
2024-02-13T04:39:39.588Z,4.65
2024-02-13T04:40:39.571Z,4.64
2024-02-13T04:41:39.660Z,4.61
2024-02-13T04:42:39.541Z,4.57
2024-02-13T04:43:39.545Z,4.54
2024-02-13T04:44:39.569Z,4.53
2024-02-13T04:45:39.532Z,4.50
2024-02-13T04:46:39.517Z,4.49
2024-02-13T04:47:39.718Z,4.50
2024-02-13T04:48:39.573Z,4.51
2024-02-13T04:49:39.498Z,4.53
2024-02-13T04:50:39.512Z,4.56
2024-02-13T04:51:39.460Z,4.56
2024-02-13T04:52:39.433Z,4.59
2024-02-13T04:53:39.451Z,4.59
2024-02-13T04:54:39.439Z,4.59
2024-02-13T04:55:39.462Z,4.57
2024-02-13T04:56:39.430Z,4.59
2024-02-13T04:57:39.390Z,4.59
2024-02-13T04:58:39.370Z,4.57
2024-02-13T04:59:39.428Z,4.56
2024-02-13T05:00:39.440Z,4.53
2024-02-13T05:01:39.342Z,4.53
2024-02-13T05:02:39.360Z,4.54
2024-02-13T05:03:39.309Z,4.50
2024-02-13T05:04:39.397Z,4.47
2024-02-13T05:05:39.427Z,4.46
2024-02-13T05:06:39.346Z,4.43
2024-02-13T05:07:39.287Z,4.39
2024-02-13T05:08:39.274Z,4.36
2024-02-13T05:09:39.279Z,4.35
2024-02-13T05:10:39.253Z,4.34
2024-02-13T05:11:39.262Z,4.34
2024-02-13T05:12:39.222Z,4.29
2024-02-13T05:13:39.201Z,4.29
2024-02-13T05:14:39.283Z,4.28
2024-02-13T05:15:39.228Z,4.25
2024-02-13T05:16:39.241Z,4.25
2024-02-13T05:17:39.238Z,4.24
2024-02-13T05:18:39.223Z,4.21
2024-02-13T05:19:39.164Z,4.21
2024-02-13T05:20:39.941Z,4.18
2024-02-13T05:21:39.121Z,4.18
2024-02-13T05:22:39.095Z,4.16
2024-02-13T05:23:39.103Z,4.14
2024-02-13T05:24:39.107Z,4.17
2024-02-13T05:25:39.081Z,4.14
2024-02-13T05:26:39.241Z,4.14
2024-02-13T05:27:39.050Z,4.11
2024-02-13T05:28:39.065Z,4.17
2024-02-13T05:29:39.111Z,4.17
2024-02-13T05:30:39.046Z,4.18
2024-02-13T05:31:39.023Z,4.14
2024-02-13T05:32:39.067Z,4.10
2024-02-13T05:33:39.110Z,4.10
2024-02-13T05:34:39.024Z,4.10
2024-02-13T05:35:38.999Z,4.10
2024-02-13T05:36:38.982Z,4.11
2024-02-13T05:37:38.994Z,4.14
2024-02-13T05:38:39.061Z,4.16
2024-02-13T05:39:38.918Z,4.17
2024-02-13T05:40:38.905Z,4.25
2024-02-13T05:41:38.954Z,4.29
2024-02-13T05:42:38.890Z,4.29
2024-02-13T05:43:38.860Z,4.32
2024-02-13T05:44:38.890Z,4.29
2024-02-13T05:45:38.997Z,4.31
2024-02-13T05:46:38.839Z,4.32
2024-02-13T05:47:38.964Z,4.32
2024-02-13T05:48:38.875Z,4.32
2024-02-13T05:49:38.814Z,4.31
2024-02-13T05:50:38.856Z,4.29
2024-02-13T05:51:38.802Z,4.29
2024-02-13T05:52:38.784Z,4.31
2024-02-13T05:53:38.814Z,4.29
2024-02-13T05:54:40.772Z,4.32
2024-02-13T05:55:38.723Z,4.35
2024-02-13T05:56:38.787Z,4.42
2024-02-13T05:57:38.702Z,4.43
2024-02-13T05:58:38.700Z,4.46
2024-02-13T05:59:38.734Z,4.46
2024-02-13T06:00:38.802Z,4.46
2024-02-13T06:01:38.729Z,4.46
2024-02-13T06:02:38.720Z,4.47
2024-02-13T06:03:38.797Z,4.49
2024-02-13T06:04:38.717Z,4.47
2024-02-13T06:05:38.714Z,4.47
2024-02-13T06:06:38.975Z,4.49
2024-02-13T06:07:38.633Z,4.49
2024-02-13T06:08:38.673Z,4.50
2024-02-13T06:09:38.568Z,4.47
2024-02-13T06:10:38.602Z,4.50
2024-02-13T06:11:38.665Z,4.53
2024-02-13T06:12:38.565Z,4.53
2024-02-13T06:13:38.544Z,4.53
2024-02-13T06:14:38.558Z,4.51
2024-02-13T06:15:38.502Z,4.51
2024-02-13T06:16:38.518Z,4.53
2024-02-13T06:17:38.598Z,4.53
2024-02-13T06:18:38.606Z,4.53
2024-02-13T06:19:38.493Z,4.56
2024-02-13T06:20:38.490Z,4.56
2024-02-13T06:21:38.444Z,4.57
2024-02-13T06:22:38.439Z,4.61
2024-02-13T06:23:38.603Z,4.65
2024-02-13T06:24:38.404Z,4.69
2024-02-13T06:25:38.373Z,4.69
2024-02-13T06:26:38.440Z,4.67
2024-02-13T06:27:38.372Z,4.65
2024-02-13T06:28:38.419Z,4.64
2024-02-13T06:29:38.364Z,4.61
2024-02-13T06:30:38.348Z,4.61
2024-02-13T06:31:38.326Z,4.59
2024-02-13T06:32:38.531Z,4.61
2024-02-13T06:33:38.421Z,4.62
2024-02-13T06:34:38.374Z,4.61
2024-02-13T06:35:38.298Z,4.64
2024-02-13T06:36:38.301Z,4.64
2024-02-13T06:37:38.248Z,4.64
2024-02-13T06:38:38.338Z,4.64
2024-02-13T06:39:38.241Z,4.65
2024-02-13T06:40:38.238Z,4.65
2024-02-13T06:41:38.353Z,4.67
2024-02-13T06:42:38.229Z,4.67
2024-02-13T06:43:38.222Z,4.65
2024-02-13T06:44:38.240Z,4.64
2024-02-13T06:45:38.183Z,4.68
2024-02-13T06:46:38.158Z,4.68
2024-02-13T06:47:38.602Z,4.71
2024-02-13T06:48:39.678Z,4.68
2024-02-13T06:49:38.184Z,4.69
2024-02-13T06:50:38.146Z,4.67
2024-02-13T06:51:38.096Z,4.68
2024-02-13T06:52:38.202Z,4.68
2024-02-13T06:53:38.134Z,4.64
2024-02-13T06:54:38.082Z,4.64
2024-02-13T06:55:38.074Z,4.62
2024-02-13T06:56:38.060Z,4.61
2024-02-13T06:57:38.045Z,4.56
2024-02-13T06:58:38.022Z,4.54
2024-02-13T06:59:38.085Z,4.54
2024-02-13T07:00:38.041Z,4.53
2024-02-13T07:01:37.971Z,4.50
2024-02-13T07:02:38.329Z,4.51
2024-02-13T07:03:38.170Z,4.50
2024-02-13T07:04:37.973Z,4.53
2024-02-13T07:05:37.961Z,4.51
2024-02-13T07:06:48.382Z,4.51
2024-02-13T07:07:45.956Z,4.50
2024-02-13T07:08:38.199Z,4.51
2024-02-13T07:09:38.064Z,4.53
2024-02-13T07:10:37.923Z,4.51
2024-02-13T07:11:37.912Z,4.56
2024-02-13T07:12:37.854Z,4.56
2024-02-13T07:13:37.836Z,4.56
2024-02-13T07:14:37.896Z,4.57
2024-02-13T07:15:38.173Z,4.59
2024-02-13T07:16:40.959Z,4.59
2024-02-13T07:17:48.841Z,4.62
2024-02-13T07:18:37.937Z,4.62
2024-02-13T07:19:37.937Z,4.65
2024-02-13T07:20:37.826Z,4.64
2024-02-13T07:21:37.760Z,4.65
2024-02-13T07:22:37.815Z,4.65
2024-02-13T07:23:37.937Z,4.67
2024-02-13T07:24:37.732Z,4.69
2024-02-13T07:25:37.702Z,4.71
2024-02-13T07:26:37.753Z,4.71
2024-02-13T07:27:37.692Z,4.71
2024-02-13T07:28:37.713Z,4.72
2024-02-13T07:29:38.626Z,4.74
2024-02-13T07:30:37.693Z,4.79
2024-02-13T07:31:37.646Z,4.75
2024-02-13T07:32:37.722Z,4.79
2024-02-13T07:33:37.900Z,4.80
2024-02-13T07:34:37.664Z,4.83
2024-02-13T07:35:37.615Z,4.83
2024-02-13T07:36:37.630Z,4.86
2024-02-13T07:37:37.571Z,4.88
2024-02-13T07:38:37.671Z,4.87
2024-02-13T07:39:37.553Z,4.88
2024-02-13T07:40:37.561Z,4.88
2024-02-13T07:41:37.547Z,4.90
2024-02-13T07:42:37.533Z,4.93
2024-02-13T07:43:37.541Z,4.96
2024-02-13T07:44:37.743Z,4.96
2024-02-13T07:45:37.477Z,4.99
2024-02-13T07:46:37.471Z,4.99
2024-02-13T07:47:37.588Z,5.02
2024-02-13T07:48:37.638Z,5.05
2024-02-13T07:49:37.565Z,5.06
2024-02-13T07:50:37.460Z,5.08
2024-02-13T07:51:37.403Z,5.11
2024-02-13T07:52:37.409Z,5.14
2024-02-13T07:53:37.442Z,5.17
2024-02-13T07:54:37.440Z,5.15
2024-02-13T07:55:37.388Z,5.15
2024-02-13T07:56:37.364Z,5.17
2024-02-13T07:57:37.346Z,5.20
2024-02-13T07:58:37.376Z,5.14
2024-02-13T07:59:37.387Z,5.15
2024-02-13T08:00:37.533Z,5.20
2024-02-13T08:01:37.282Z,5.15
2024-02-13T08:02:37.402Z,5.17
2024-02-13T08:03:37.296Z,5.20
2024-02-13T08:04:37.368Z,5.22
2024-02-13T08:05:37.310Z,5.23
2024-02-13T08:06:37.327Z,5.22
2024-02-13T08:07:37.227Z,5.20
2024-02-13T08:08:37.334Z,5.24
2024-02-13T08:09:37.266Z,5.22
2024-02-13T08:10:37.200Z,5.26
2024-02-13T08:11:37.213Z,5.24
2024-02-13T08:12:37.203Z,5.27
2024-02-13T08:13:37.185Z,5.29
2024-02-13T08:14:37.267Z,5.29
2024-02-13T08:15:37.139Z,5.30
2024-02-13T08:16:37.579Z,5.27
2024-02-13T08:17:37.291Z,5.29
2024-02-13T08:18:37.146Z,5.29
2024-02-13T08:19:37.205Z,5.30
2024-02-13T08:20:37.181Z,5.32
2024-02-13T08:21:37.092Z,5.35
2024-02-13T08:22:37.134Z,5.38
2024-02-13T08:23:37.089Z,5.40
2024-02-13T08:24:37.282Z,5.41
2024-02-13T08:25:37.021Z,5.42
2024-02-13T08:26:37.058Z,5.40
2024-02-13T08:27:37.026Z,5.40
2024-02-13T08:28:37.046Z,5.41
2024-02-13T08:29:37.023Z,5.42
2024-02-13T08:30:37.006Z,5.47
2024-02-13T08:31:36.972Z,5.49
2024-02-13T08:32:37.070Z,5.51
2024-02-13T08:33:37.155Z,5.52
2024-02-13T08:34:37.163Z,5.58
2024-02-13T08:35:37.093Z,5.60
2024-02-13T08:36:36.922Z,5.66
2024-02-13T08:37:36.910Z,5.70
2024-02-13T08:38:36.917Z,5.74
2024-02-13T08:39:36.879Z,5.77
2024-02-13T08:40:36.927Z,5.80
2024-02-13T08:41:36.879Z,5.83
2024-02-13T08:42:36.864Z,5.83
2024-02-13T08:43:36.837Z,5.84
2024-02-13T08:44:36.858Z,5.84
2024-02-13T08:45:36.915Z,5.85
2024-02-13T08:46:36.845Z,5.85
2024-02-13T08:47:36.870Z,5.87
2024-02-13T08:48:37.006Z,5.87
2024-02-13T08:49:36.917Z,5.88
2024-02-13T08:50:36.901Z,5.90
2024-02-13T08:51:38.438Z,5.85
2024-02-13T08:52:36.739Z,5.90
2024-02-13T08:53:36.861Z,5.90
2024-02-13T08:54:36.724Z,5.92
2024-02-13T08:55:36.735Z,5.90
2024-02-13T08:56:36.722Z,5.90
2024-02-13T08:57:36.700Z,5.98
2024-02-13T08:58:36.693Z,5.98
2024-02-13T08:59:36.685Z,5.99
2024-02-13T09:00:36.719Z,6.02
2024-02-13T09:01:36.784Z,6.05
2024-02-13T09:02:36.673Z,6.06
2024-02-13T09:03:36.600Z,6.13
2024-02-13T09:04:36.713Z,6.14
2024-02-13T09:05:36.634Z,6.17
2024-02-13T09:06:36.846Z,6.24
2024-02-13T09:07:36.561Z,6.21
2024-02-13T09:08:36.659Z,6.28
2024-02-13T09:09:36.569Z,6.30
2024-02-13T09:10:36.594Z,6.32
2024-02-13T09:11:36.545Z,6.28
2024-02-13T09:12:36.528Z,6.36
2024-02-13T09:13:36.476Z,6.46
2024-02-13T09:14:36.664Z,6.50
2024-02-13T09:15:36.500Z,6.51
2024-02-13T09:16:36.455Z,6.55
2024-02-13T09:17:36.521Z,6.57
2024-02-13T09:18:36.525Z,6.60
2024-02-13T09:19:36.464Z,6.60
2024-02-13T09:20:36.480Z,6.58
2024-02-13T09:21:36.415Z,6.60
2024-02-13T09:22:36.389Z,6.63
2024-02-13T09:23:36.531Z,6.68
2024-02-13T09:24:36.452Z,6.71
2024-02-13T09:25:36.353Z,6.76
2024-02-13T09:26:36.373Z,6.78
2024-02-13T09:27:36.327Z,6.78
2024-02-13T09:28:36.343Z,6.78
2024-02-13T09:29:36.324Z,6.73
2024-02-13T09:30:36.301Z,6.82
2024-02-13T09:31:36.271Z,6.83
2024-02-13T09:32:36.422Z,6.90
2024-02-13T09:33:36.454Z,6.87
2024-02-13T09:34:36.302Z,6.90
2024-02-13T09:35:36.259Z,6.99
2024-02-13T09:36:36.226Z,7.00
2024-02-13T09:37:36.244Z,7.00
2024-02-13T09:38:36.278Z,7.00
2024-02-13T09:39:36.225Z,7.05
2024-02-13T09:40:36.173Z,7.00
2024-02-13T09:41:36.207Z,7.07
2024-02-13T09:42:36.167Z,7.12
2024-02-13T09:43:38.719Z,7.09
2024-02-13T09:44:36.170Z,7.08
2024-02-13T09:45:36.142Z,7.05
2024-02-13T09:46:36.105Z,7.04
2024-02-13T09:47:36.186Z,7.08
2024-02-13T09:48:36.344Z,7.14
2024-02-13T09:49:36.190Z,7.15
2024-02-13T09:50:36.115Z,7.26
2024-02-13T09:51:36.074Z,7.26
2024-02-13T09:52:36.052Z,7.33
2024-02-13T09:53:36.097Z,7.39
2024-02-13T09:54:36.024Z,7.33
2024-02-13T09:55:36.012Z,7.34
2024-02-13T09:56:36.063Z,7.36
2024-02-13T09:57:36.013Z,7.27
2024-02-13T09:58:35.997Z,7.34
2024-02-13T09:59:36.059Z,7.36
2024-02-13T10:00:35.992Z,7.41
2024-02-13T10:01:35.955Z,7.32
2024-02-13T10:02:36.004Z,7.33
2024-02-13T10:03:35.940Z,7.30
2024-02-13T10:04:36.645Z,7.33
2024-02-13T10:05:35.924Z,7.36
2024-02-13T10:06:35.952Z,7.34
2024-02-13T10:07:38.808Z,7.37
2024-02-13T10:08:35.896Z,7.33
2024-02-13T10:09:35.897Z,7.34
2024-02-13T10:10:35.826Z,7.39
2024-02-13T10:11:35.874Z,7.45
2024-02-13T10:12:35.876Z,7.51
2024-02-13T10:13:35.822Z,7.48
2024-02-13T10:14:35.810Z,7.45
2024-02-13T10:15:35.780Z,7.47
2024-02-13T10:16:35.792Z,7.47
2024-02-13T10:17:36.490Z,7.50
2024-02-13T10:18:35.893Z,7.50
2024-02-13T10:19:37.858Z,7.50
2024-02-13T10:20:35.787Z,7.50
2024-02-13T10:21:35.753Z,7.55
2024-02-13T10:22:35.702Z,7.58
2024-02-13T10:23:35.788Z,7.55
2024-02-13T10:24:35.850Z,7.50
2024-02-13T10:25:35.679Z,7.47
2024-02-13T10:26:35.788Z,7.44
2024-02-13T10:27:35.732Z,7.42
2024-02-13T10:28:35.693Z,7.42
2024-02-13T10:29:35.720Z,7.30
2024-02-13T10:30:35.633Z,7.32
2024-02-13T10:31:35.645Z,7.33
2024-02-13T10:32:35.665Z,7.33
2024-02-13T10:33:35.658Z,7.33
2024-02-13T10:34:35.602Z,7.32
2024-02-13T10:35:35.702Z,7.37
2024-02-13T10:36:35.621Z,7.41
2024-02-13T10:37:35.543Z,7.44
2024-02-13T10:38:35.562Z,7.50
2024-02-13T10:39:35.557Z,7.55
2024-02-13T10:40:35.571Z,7.55
2024-02-13T10:41:35.546Z,7.60
2024-02-13T10:42:35.494Z,7.62
2024-02-13T10:43:35.582Z,7.63
2024-02-13T10:44:35.548Z,7.74
2024-02-13T10:45:35.457Z,7.79
2024-02-13T10:46:35.436Z,7.84
2024-02-13T10:47:35.464Z,7.91
2024-02-13T10:48:35.663Z,7.86
2024-02-13T10:49:35.446Z,7.86
2024-02-13T10:50:35.476Z,7.88
2024-02-13T10:51:35.397Z,7.88
2024-02-13T10:52:35.361Z,7.86
2024-02-13T10:53:35.399Z,7.91
2024-02-13T10:54:35.344Z,7.95
2024-02-13T10:55:35.370Z,7.91
2024-02-13T10:56:35.347Z,7.95
2024-02-13T10:57:35.306Z,7.99
2024-02-13T10:58:35.415Z,8.04
2024-02-13T10:59:35.326Z,8.09
2024-02-13T11:00:35.433Z,8.14
2024-02-13T11:01:35.374Z,8.24
2024-02-13T11:02:35.297Z,8.34
2024-02-13T11:03:35.258Z,8.39
2024-02-13T11:04:35.232Z,8.36
2024-02-13T11:05:35.288Z,8.36
2024-02-13T11:06:35.335Z,8.39
2024-02-13T11:07:35.234Z,8.31
2024-02-13T11:08:35.200Z,8.36
2024-02-13T11:09:35.182Z,8.39
2024-02-13T11:10:35.183Z,8.49
2024-02-13T11:11:35.188Z,8.61
2024-02-13T11:12:35.140Z,8.76
2024-02-13T11:13:35.135Z,8.88
2024-02-13T11:14:35.197Z,8.97
2024-02-13T11:15:35.122Z,9.04
2024-02-13T11:16:35.095Z,8.94
2024-02-13T11:17:35.147Z,8.73
2024-02-13T11:18:35.132Z,8.63
2024-02-13T11:19:35.136Z,8.64
2024-02-13T11:20:35.211Z,8.52
2024-02-13T11:21:35.040Z,8.45
2024-02-13T11:22:35.021Z,8.70
2024-02-13T11:23:35.210Z,9.42
2024-02-13T11:24:35.057Z,9.63
2024-02-13T11:25:35.021Z,9.68
2024-02-13T11:26:35.619Z,10.17
2024-02-13T11:27:35.030Z,10.73
2024-02-13T11:28:34.969Z,10.87
2024-02-13T11:29:35.117Z,11.05
2024-02-13T11:30:34.982Z,11.08
2024-02-13T11:31:34.952Z,10.60
2024-02-13T11:32:35.121Z,10.34
2024-02-13T11:33:35.049Z,10.20
2024-02-13T11:34:35.979Z,9.88
2024-02-13T11:35:34.967Z,9.81
2024-02-13T11:36:35.089Z,9.93
2024-02-13T11:37:34.863Z,9.60
2024-02-13T11:38:34.863Z,9.52
2024-02-13T11:39:34.846Z,9.34
2024-02-13T11:40:34.818Z,9.53
2024-02-13T11:41:34.918Z,9.52
2024-02-13T11:42:35.002Z,10.11
2024-02-13T11:43:34.794Z,10.29
2024-02-13T11:44:34.801Z,10.35
2024-02-13T11:45:34.783Z,10.75
2024-02-13T11:46:34.736Z,10.70
2024-02-13T11:47:35.047Z,10.11
2024-02-13T11:48:35.711Z,10.44
2024-02-13T11:49:34.848Z,10.66
2024-02-13T11:50:34.801Z,10.28
2024-02-13T11:51:34.774Z,10.10
2024-02-13T11:52:34.712Z,10.18
2024-02-13T11:53:34.781Z,10.26
2024-02-13T11:54:34.658Z,10.29
2024-02-13T11:55:34.669Z,10.32
2024-02-13T11:56:34.671Z,10.29
2024-02-13T11:57:34.666Z,10.62
2024-02-13T11:58:34.607Z,10.55
2024-02-13T11:59:34.642Z,10.16
2024-02-13T12:00:34.601Z,10.04
2024-02-13T12:01:34.582Z,10.06
2024-02-13T12:02:34.898Z,10.29
2024-02-13T12:03:34.564Z,10.09
2024-02-13T12:04:34.585Z,10.22
2024-02-13T12:05:34.595Z,10.01
2024-02-13T12:06:34.531Z,9.98
2024-02-13T12:07:34.557Z,10.04
2024-02-13T12:08:34.568Z,10.09
2024-02-13T12:09:34.560Z,9.99
2024-02-13T12:10:34.467Z,9.65
2024-02-13T12:11:34.552Z,9.52
2024-02-13T12:12:34.450Z,9.50
2024-02-13T12:13:34.472Z,9.42
2024-02-13T12:14:34.452Z,9.44
2024-02-13T12:15:34.434Z,9.67
2024-02-13T12:16:34.688Z,9.83
2024-02-13T12:17:34.465Z,9.88
2024-02-13T12:18:34.558Z,9.96
2024-02-13T12:19:37.028Z,10.04
2024-02-13T12:20:34.445Z,9.99
2024-02-13T12:21:34.376Z,9.96
2024-02-13T12:22:34.360Z,10.02
2024-02-13T12:23:34.354Z,10.04
2024-02-13T12:24:34.347Z,10.07
2024-02-13T12:25:34.326Z,9.80
2024-02-13T12:26:34.344Z,9.63
2024-02-13T12:27:34.301Z,9.68
2024-02-13T12:28:34.285Z,9.77
2024-02-13T12:29:34.328Z,9.60
2024-02-13T12:30:34.253Z,9.63
2024-02-13T12:31:34.244Z,9.77
2024-02-13T12:32:34.336Z,9.86
2024-02-13T12:33:34.425Z,9.99
2024-02-13T12:34:34.328Z,10.11
2024-02-13T12:35:34.293Z,10.16
2024-02-13T12:36:34.239Z,10.04
2024-02-13T12:37:34.170Z,9.93
2024-02-13T12:38:34.184Z,9.78
2024-02-13T12:39:34.182Z,9.75
2024-02-13T12:40:34.158Z,9.59
2024-02-13T12:41:34.204Z,9.52
2024-02-13T12:42:34.144Z,9.52
2024-02-13T12:43:34.122Z,9.58
2024-02-13T12:44:34.154Z,9.67
2024-02-13T12:45:34.099Z,9.67
2024-02-13T12:46:34.096Z,9.74
2024-02-13T12:47:34.132Z,9.74
2024-02-13T12:48:38.369Z,9.62
2024-02-13T12:49:34.202Z,9.58
2024-02-13T12:50:34.225Z,9.55
2024-02-13T12:51:34.143Z,9.56
2024-02-13T12:52:34.022Z,9.53
2024-02-13T12:53:34.002Z,9.56
2024-02-13T12:54:34.185Z,9.55
2024-02-13T12:55:33.980Z,9.52
2024-02-13T12:56:33.952Z,9.55
2024-02-13T12:57:33.979Z,9.55
2024-02-13T12:58:33.941Z,9.56
2024-02-13T12:59:33.925Z,9.48
2024-02-13T13:00:33.910Z,9.55
2024-02-13T13:01:34.077Z,9.59
2024-02-13T13:02:34.001Z,9.63
2024-02-13T13:03:33.951Z,9.74
2024-02-13T13:04:33.948Z,9.77
2024-02-13T13:05:33.974Z,9.83
2024-02-13T13:06:33.978Z,9.80
2024-02-13T13:07:33.881Z,9.67
2024-02-13T13:08:33.858Z,9.73
2024-02-13T13:09:33.859Z,9.63
2024-02-13T13:10:33.823Z,9.63
2024-02-13T13:11:33.829Z,9.70
2024-02-13T13:12:33.798Z,9.67
2024-02-13T13:13:33.782Z,9.71
2024-02-13T13:14:33.829Z,9.74
2024-02-13T13:15:33.762Z,9.68
2024-02-13T13:16:33.728Z,9.67
2024-02-13T13:17:34.017Z,9.65